sensor_id;sensor_type;location;lat;lon;timestamp;P1;durP1;ratioP1;P2;durP2;ratioP2
4583;SDS011;2304;47.606;12.186;2023-05-23T00:04:42;15.47;;;11.70;;
4583;SDS011;2304;47.606;12.186;2023-05-23T00:09:44;13.30;;;10.37;;
4583;SDS011;2304;47.606;12.186;2023-05-23T00:14:47;17.33;;;11.90;;
4583;SDS011;2304;47.606;12.186;2023-05-23T00:19:49;14.70;;;11.10;;
4583;SDS011;2304;47.606;12.186;2023-05-23T00:24:51;14.13;;;11.33;;
4583;SDS011;2304;47.606;12.186;2023-05-23T00:29:54;14.00;;;10.80;;
4583;SDS011;2304;47.606;12.186;2023-05-23T00:34:56;15.30;;;11.60;;
4583;SDS011;2304;47.606;12.186;2023-05-23T00:39:58;16.67;;;12.70;;
4583;SDS011;2304;47.606;12.186;2023-05-23T00:45:01;15.20;;;11.70;;
4583;SDS011;2304;47.606;12.186;2023-05-23T00:50:04;15.57;;;11.67;;
4583;SDS011;2304;47.606;12.186;2023-05-23T00:55:08;19.93;;;12.03;;
4583;SDS011;2304;47.606;12.186;2023-05-23T01:00:12;14.00;;;11.50;;
4583;SDS011;2304;47.606;12.186;2023-05-23T01:05:15;18.53;;;12.83;;
4583;SDS011;2304;47.606;12.186;2023-05-23T01:10:18;17.47;;;12.93;;
4583;SDS011;2304;47.606;12.186;2023-05-23T01:15:24;17.07;;;13.43;;
4583;SDS011;2304;47.606;12.186;2023-05-23T01:20:33;16.50;;;12.97;;
4583;SDS011;2304;47.606;12.186;2023-05-23T01:25:43;17.00;;;12.70;;
4583;SDS011;2304;47.606;12.186;2023-05-23T01:30:59;18.73;;;13.30;;
4583;SDS011;2304;47.606;12.186;2023-05-23T01:36:04;16.23;;;11.90;;
4583;SDS011;2304;47.606;12.186;2023-05-23T01:41:06;18.20;;;12.93;;
4583;SDS011;2304;47.606;12.186;2023-05-23T01:46:09;21.80;;;14.37;;
4583;SDS011;2304;47.606;12.186;2023-05-23T01:51:11;18.13;;;13.90;;
4583;SDS011;2304;47.606;12.186;2023-05-23T01:56:14;18.33;;;13.53;;
4583;SDS011;2304;47.606;12.186;2023-05-23T02:01:18;21.00;;;13.97;;
4583;SDS011;2304;47.606;12.186;2023-05-23T02:06:20;14.73;;;12.13;;
4583;SDS011;2304;47.606;12.186;2023-05-23T02:11:21;15.13;;;11.40;;
4583;SDS011;2304;47.606;12.186;2023-05-23T02:16:24;15.10;;;12.77;;
4583;SDS011;2304;47.606;12.186;2023-05-23T02:21:26;17.03;;;13.33;;
4583;SDS011;2304;47.606;12.186;2023-05-23T02:26:28;17.00;;;12.80;;
4583;SDS011;2304;47.606;12.186;2023-05-23T02:31:32;17.33;;;13.50;;
4583;SDS011;2304;47.606;12.186;2023-05-23T02:36:34;19.70;;;14.50;;
4583;SDS011;2304;47.606;12.186;2023-05-23T02:41:36;17.37;;;13.43;;
4583;SDS011;2304;47.606;12.186;2023-05-23T02:46:39;14.10;;;12.10;;
4583;SDS011;2304;47.606;12.186;2023-05-23T02:51:41;20.10;;;12.80;;
4583;SDS011;2304;47.606;12.186;2023-05-23T02:56:43;22.00;;;13.57;;
4583;SDS011;2304;47.606;12.186;2023-05-23T03:01:46;17.23;;;13.00;;
4583;SDS011;2304;47.606;12.186;2023-05-23T03:06:48;15.77;;;13.00;;
4583;SDS011;2304;47.606;12.186;2023-05-23T03:11:53;17.13;;;12.67;;
4583;SDS011;2304;47.606;12.186;2023-05-23T03:16:56;13.57;;;11.50;;
4583;SDS011;2304;47.606;12.186;2023-05-23T03:21:58;32.13;;;12.60;;
4583;SDS011;2304;47.606;12.186;2023-05-23T03:26:59;15.43;;;12.50;;
4583;SDS011;2304;47.606;12.186;2023-05-23T03:32:03;15.33;;;13.00;;
4583;SDS011;2304;47.606;12.186;2023-05-23T03:37:06;17.27;;;12.50;;
4583;SDS011;2304;47.606;12.186;2023-05-23T03:42:07;16.87;;;13.80;;
4583;SDS011;2304;47.606;12.186;2023-05-23T03:47:10;16.77;;;12.23;;
4583;SDS011;2304;47.606;12.186;2023-05-23T03:52:12;17.97;;;12.60;;
4583;SDS011;2304;47.606;12.186;2023-05-23T03:57:14;15.80;;;12.83;;
4583;SDS011;2304;47.606;12.186;2023-05-23T04:02:17;16.93;;;13.33;;
4583;SDS011;2304;47.606;12.186;2023-05-23T04:07:19;15.47;;;12.53;;
4583;SDS011;2304;47.606;12.186;2023-05-23T04:12:22;18.80;;;12.00;;
4583;SDS011;2304;47.606;12.186;2023-05-23T04:17:25;21.73;;;12.53;;
4583;SDS011;2304;47.606;12.186;2023-05-23T04:22:29;16.03;;;12.77;;
4583;SDS011;2304;47.606;12.186;2023-05-23T04:27:31;17.30;;;13.27;;
4583;SDS011;2304;47.606;12.186;2023-05-23T04:32:34;20.90;;;14.03;;
4583;SDS011;2304;47.606;12.186;2023-05-23T04:37:37;15.97;;;12.40;;
4583;SDS011;2304;47.606;12.186;2023-05-23T04:42:39;18.60;;;13.43;;
4583;SDS011;2304;47.606;12.186;2023-05-23T04:47:44;16.77;;;13.43;;
4583;SDS011;2304;47.606;12.186;2023-05-23T04:52:46;20.60;;;14.00;;
4583;SDS011;2304;47.606;12.186;2023-05-23T04:57:48;18.30;;;13.13;;
4583;SDS011;2304;47.606;12.186;2023-05-23T05:02:51;24.00;;;15.30;;
4583;SDS011;2304;47.606;12.186;2023-05-23T05:07:53;20.23;;;14.77;;
4583;SDS011;2304;47.606;12.186;2023-05-23T05:12:56;22.07;;;15.50;;
4583;SDS011;2304;47.606;12.186;2023-05-23T05:17:59;20.83;;;16.23;;
4583;SDS011;2304;47.606;12.186;2023-05-23T05:23:01;20.10;;;16.03;;
4583;SDS011;2304;47.606;12.186;2023-05-23T05:28:02;20.77;;;16.00;;
4583;SDS011;2304;47.606;12.186;2023-05-23T05:33:06;25.20;;;17.27;;
4583;SDS011;2304;47.606;12.186;2023-05-23T05:38:09;22.37;;;16.77;;
4583;SDS011;2304;47.606;12.186;2023-05-23T05:43:10;19.10;;;14.43;;
4583;SDS011;2304;47.606;12.186;2023-05-23T05:48:14;18.73;;;14.97;;
4583;SDS011;2304;47.606;12.186;2023-05-23T05:53:16;19.50;;;14.33;;
4583;SDS011;2304;47.606;12.186;2023-05-23T05:58:18;16.97;;;12.40;;
4583;SDS011;2304;47.606;12.186;2023-05-23T06:03:21;15.20;;;12.00;;
4583;SDS011;2304;47.606;12.186;2023-05-23T06:08:23;16.00;;;12.20;;
4583;SDS011;2304;47.606;12.186;2023-05-23T06:13:25;17.60;;;13.20;;
4583;SDS011;2304;47.606;12.186;2023-05-23T06:18:28;17.97;;;11.80;;
4583;SDS011;2304;47.606;12.186;2023-05-23T06:23:30;17.10;;;12.70;;
4583;SDS011;2304;47.606;12.186;2023-05-23T06:28:32;16.43;;;12.00;;
4583;SDS011;2304;47.606;12.186;2023-05-23T06:33:36;18.67;;;13.90;;
4583;SDS011;2304;47.606;12.186;2023-05-23T06:38:37;19.83;;;13.10;;
4583;SDS011;2304;47.606;12.186;2023-05-23T06:43:39;19.00;;;12.77;;
4583;SDS011;2304;47.606;12.186;2023-05-23T06:48:42;18.70;;;13.17;;
4583;SDS011;2304;47.606;12.186;2023-05-23T06:53:44;15.40;;;11.50;;
4583;SDS011;2304;47.606;12.186;2023-05-23T06:58:46;16.90;;;10.70;;
4583;SDS011;2304;47.606;12.186;2023-05-23T07:03:49;19.67;;;10.33;;
4583;SDS011;2304;47.606;12.186;2023-05-23T07:08:51;14.90;;;11.47;;
4583;SDS011;2304;47.606;12.186;2023-05-23T07:13:53;18.00;;;11.87;;
4583;SDS011;2304;47.606;12.186;2023-05-23T07:18:56;16.20;;;11.17;;
4583;SDS011;2304;47.606;12.186;2023-05-23T07:23:58;13.77;;;11.40;;
4583;SDS011;2304;47.606;12.186;2023-05-23T07:28:59;14.43;;;10.47;;
4583;SDS011;2304;47.606;12.186;2023-05-23T07:34:02;13.90;;;9.50;;
4583;SDS011;2304;47.606;12.186;2023-05-23T07:39:04;12.30;;;9.33;;
4583;SDS011;2304;47.606;12.186;2023-05-23T07:44:06;13.60;;;9.73;;
4583;SDS011;2304;47.606;12.186;2023-05-23T07:49:10;14.77;;;10.03;;
4583;SDS011;2304;47.606;12.186;2023-05-23T07:54:11;13.90;;;9.90;;
4583;SDS011;2304;47.606;12.186;2023-05-23T07:59:13;13.33;;;11.10;;
4583;SDS011;2304;47.606;12.186;2023-05-23T08:04:17;12.50;;;10.30;;
4583;SDS011;2304;47.606;12.186;2023-05-23T08:09:19;12.80;;;10.40;;
4583;SDS011;2304;47.606;12.186;2023-05-23T08:14:20;18.53;;;11.40;;
4583;SDS011;2304;47.606;12.186;2023-05-23T08:19:24;17.63;;;10.70;;
4583;SDS011;2304;47.606;12.186;2023-05-23T08:24:25;17.53;;;12.10;;
4583;SDS011;2304;47.606;12.186;2023-05-23T08:29:29;13.90;;;10.63;;
4583;SDS011;2304;47.606;12.186;2023-05-23T08:34:32;13.17;;;8.20;;
4583;SDS011;2304;47.606;12.186;2023-05-23T08:39:34;13.70;;;10.20;;
4583;SDS011;2304;47.606;12.186;2023-05-23T08:44:36;13.47;;;10.50;;
4583;SDS011;2304;47.606;12.186;2023-05-23T08:49:41;14.30;;;11.17;;
4583;SDS011;2304;47.606;12.186;2023-05-23T08:54:43;16.43;;;10.90;;
4583;SDS011;2304;47.606;12.186;2023-05-23T08:59:46;16.70;;;12.80;;
4583;SDS011;2304;47.606;12.186;2023-05-23T09:04:51;17.53;;;12.30;;
4583;SDS011;2304;47.606;12.186;2023-05-23T09:09:53;19.60;;;12.73;;
4583;SDS011;2304;47.606;12.186;2023-05-23T09:14:55;17.53;;;12.70;;
4583;SDS011;2304;47.606;12.186;2023-05-23T09:19:58;15.17;;;11.47;;
4583;SDS011;2304;47.606;12.186;2023-05-23T09:25:00;14.30;;;10.80;;
4583;SDS011;2304;47.606;12.186;2023-05-23T09:30:05;13.60;;;10.70;;
4583;SDS011;2304;47.606;12.186;2023-05-23T09:35:09;15.43;;;11.27;;
4583;SDS011;2304;47.606;12.186;2023-05-23T09:40:13;17.30;;;10.67;;
4583;SDS011;2304;47.606;12.186;2023-05-23T09:45:15;10.77;;;8.80;;
4583;SDS011;2304;47.606;12.186;2023-05-23T09:50:19;10.67;;;8.80;;
4583;SDS011;2304;47.606;12.186;2023-05-23T09:55:24;15.83;;;9.17;;
4583;SDS011;2304;47.606;12.186;2023-05-23T10:00:26;11.77;;;8.70;;
4583;SDS011;2304;47.606;12.186;2023-05-23T10:05:32;12.30;;;9.30;;
4583;SDS011;2304;47.606;12.186;2023-05-23T10:10:36;11.27;;;8.27;;
4583;SDS011;2304;47.606;12.186;2023-05-23T10:16:14;14.27;;;9.60;;
4583;SDS011;2304;47.606;12.186;2023-05-23T10:21:23;14.70;;;10.77;;
4583;SDS011;2304;47.606;12.186;2023-05-23T10:26:31;10.60;;;8.20;;
4583;SDS011;2304;47.606;12.186;2023-05-23T10:31:33;10.97;;;8.77;;
4583;SDS011;2304;47.606;12.186;2023-05-23T10:36:39;10.63;;;8.50;;
4583;SDS011;2304;47.606;12.186;2023-05-23T10:41:50;10.20;;;7.63;;
4583;SDS011;2304;47.606;12.186;2023-05-23T10:46:56;12.83;;;8.80;;
4583;SDS011;2304;47.606;12.186;2023-05-23T10:52:02;10.73;;;9.00;;
4583;SDS011;2304;47.606;12.186;2023-05-23T10:57:05;11.60;;;9.10;;
4583;SDS011;2304;47.606;12.186;2023-05-23T11:07:28;11.20;;;9.23;;
4583;SDS011;2304;47.606;12.186;2023-05-23T11:12:35;10.83;;;7.83;;
4583;SDS011;2304;47.606;12.186;2023-05-23T11:17:38;15.00;;;8.70;;
4583;SDS011;2304;47.606;12.186;2023-05-23T11:22:58;11.37;;;8.43;;
4583;SDS011;2304;47.606;12.186;2023-05-23T11:28:02;13.53;;;9.00;;
4583;SDS011;2304;47.606;12.186;2023-05-23T11:33:05;10.43;;;9.23;;
4583;SDS011;2304;47.606;12.186;2023-05-23T11:38:11;10.00;;;8.17;;
4583;SDS011;2304;47.606;12.186;2023-05-23T11:43:15;10.50;;;8.90;;
4583;SDS011;2304;47.606;12.186;2023-05-23T11:48:18;9.17;;;7.40;;
4583;SDS011;2304;47.606;12.186;2023-05-23T11:53:22;13.13;;;8.93;;
4583;SDS011;2304;47.606;12.186;2023-05-23T11:58:28;10.57;;;8.70;;
4583;SDS011;2304;47.606;12.186;2023-05-23T12:03:31;13.00;;;9.80;;
4583;SDS011;2304;47.606;12.186;2023-05-23T12:08:36;14.77;;;10.80;;
4583;SDS011;2304;47.606;12.186;2023-05-23T12:13:39;16.50;;;12.20;;
4583;SDS011;2304;47.606;12.186;2023-05-23T12:18:42;14.30;;;10.50;;
4583;SDS011;2304;47.606;12.186;2023-05-23T12:23:45;13.80;;;11.03;;
4583;SDS011;2304;47.606;12.186;2023-05-23T12:28:47;15.17;;;11.03;;
4583;SDS011;2304;47.606;12.186;2023-05-23T12:33:51;15.33;;;11.30;;
4583;SDS011;2304;47.606;12.186;2023-05-23T12:38:54;14.90;;;10.43;;
4583;SDS011;2304;47.606;12.186;2023-05-23T12:44:02;13.90;;;10.90;;
4583;SDS011;2304;47.606;12.186;2023-05-23T12:49:04;19.20;;;12.40;;
4583;SDS011;2304;47.606;12.186;2023-05-23T12:54:08;14.00;;;11.20;;
4583;SDS011;2304;47.606;12.186;2023-05-23T12:59:10;17.53;;;11.07;;
4583;SDS011;2304;47.606;12.186;2023-05-23T13:04:12;14.23;;;10.33;;
4583;SDS011;2304;47.606;12.186;2023-05-23T13:09:15;11.07;;;9.37;;
4583;SDS011;2304;47.606;12.186;2023-05-23T13:14:17;11.50;;;9.30;;
4583;SDS011;2304;47.606;12.186;2023-05-23T13:19:21;11.83;;;9.50;;
4583;SDS011;2304;47.606;12.186;2023-05-23T13:24:24;13.27;;;9.93;;
4583;SDS011;2304;47.606;12.186;2023-05-23T13:29:26;12.23;;;10.40;;
4583;SDS011;2304;47.606;12.186;2023-05-23T13:34:28;15.93;;;10.90;;
4583;SDS011;2304;47.606;12.186;2023-05-23T13:39:31;15.40;;;12.20;;
4583;SDS011;2304;47.606;12.186;2023-05-23T13:44:33;14.27;;;11.03;;
4583;SDS011;2304;47.606;12.186;2023-05-23T13:49:34;14.57;;;10.47;;
4583;SDS011;2304;47.606;12.186;2023-05-23T13:54:37;13.70;;;11.40;;
4583;SDS011;2304;47.606;12.186;2023-05-23T13:59:40;13.47;;;11.63;;
4583;SDS011;2304;47.606;12.186;2023-05-23T14:04:42;12.67;;;10.67;;
4583;SDS011;2304;47.606;12.186;2023-05-23T14:09:45;13.90;;;11.20;;
4583;SDS011;2304;47.606;12.186;2023-05-23T14:14:47;16.00;;;11.40;;
4583;SDS011;2304;47.606;12.186;2023-05-23T14:19:49;13.17;;;10.73;;
4583;SDS011;2304;47.606;12.186;2023-05-23T14:24:52;16.07;;;10.93;;
4583;SDS011;2304;47.606;12.186;2023-05-23T14:29:54;13.10;;;9.90;;
4583;SDS011;2304;47.606;12.186;2023-05-23T14:34:56;13.47;;;10.63;;
4583;SDS011;2304;47.606;12.186;2023-05-23T14:39:59;15.03;;;11.27;;
4583;SDS011;2304;47.606;12.186;2023-05-23T14:45:02;17.53;;;13.30;;
4583;SDS011;2304;47.606;12.186;2023-05-23T14:50:04;16.00;;;12.47;;
4583;SDS011;2304;47.606;12.186;2023-05-23T14:55:08;15.27;;;12.30;;
4583;SDS011;2304;47.606;12.186;2023-05-23T15:00:10;19.50;;;12.63;;
4583;SDS011;2304;47.606;12.186;2023-05-23T15:05:13;19.07;;;12.97;;
4583;SDS011;2304;47.606;12.186;2023-05-23T15:10:17;17.23;;;12.40;;
4583;SDS011;2304;47.606;12.186;2023-05-23T15:15:19;14.30;;;10.27;;
4583;SDS011;2304;47.606;12.186;2023-05-23T15:20:22;14.00;;;10.70;;
4583;SDS011;2304;47.606;12.186;2023-05-23T15:25:25;17.77;;;13.60;;
4583;SDS011;2304;47.606;12.186;2023-05-23T15:30:27;14.40;;;11.20;;
4583;SDS011;2304;47.606;12.186;2023-05-23T15:35:29;14.77;;;12.10;;
4583;SDS011;2304;47.606;12.186;2023-05-23T15:40:32;19.83;;;13.00;;
4583;SDS011;2304;47.606;12.186;2023-05-23T15:45:34;15.20;;;10.77;;
4583;SDS011;2304;47.606;12.186;2023-05-23T15:50:35;12.13;;;10.40;;
4583;SDS011;2304;47.606;12.186;2023-05-23T15:55:39;15.10;;;11.57;;
4583;SDS011;2304;47.606;12.186;2023-05-23T16:00:41;14.87;;;11.27;;
4583;SDS011;2304;47.606;12.186;2023-05-23T16:05:42;15.80;;;11.17;;
4583;SDS011;2304;47.606;12.186;2023-05-23T16:10:46;12.57;;;10.40;;
4583;SDS011;2304;47.606;12.186;2023-05-23T16:15:47;14.67;;;11.17;;
4583;SDS011;2304;47.606;12.186;2023-05-23T16:20:49;13.83;;;10.37;;
4583;SDS011;2304;47.606;12.186;2023-05-23T16:25:52;13.07;;;10.13;;
4583;SDS011;2304;47.606;12.186;2023-05-23T16:30:54;13.30;;;10.63;;
4583;SDS011;2304;47.606;12.186;2023-05-23T16:35:56;13.60;;;9.37;;
4583;SDS011;2304;47.606;12.186;2023-05-23T16:40:59;12.63;;;9.57;;
4583;SDS011;2304;47.606;12.186;2023-05-23T16:46:01;13.87;;;10.70;;
4583;SDS011;2304;47.606;12.186;2023-05-23T16:51:03;13.10;;;10.30;;
4583;SDS011;2304;47.606;12.186;2023-05-23T16:56:06;17.10;;;14.20;;
4583;SDS011;2304;47.606;12.186;2023-05-23T17:01:08;20.90;;;16.33;;
4583;SDS011;2304;47.606;12.186;2023-05-23T17:06:10;14.03;;;11.60;;
4583;SDS011;2304;47.606;12.186;2023-05-23T17:11:13;13.60;;;10.57;;
4583;SDS011;2304;47.606;12.186;2023-05-23T17:16:15;17.43;;;10.90;;
4583;SDS011;2304;47.606;12.186;2023-05-23T17:21:17;14.23;;;10.23;;
4583;SDS011;2304;47.606;12.186;2023-05-23T17:26:20;17.33;;;10.97;;
4583;SDS011;2304;47.606;12.186;2023-05-23T17:31:22;18.47;;;11.70;;
4583;SDS011;2304;47.606;12.186;2023-05-23T17:36:24;21.00;;;10.87;;
4583;SDS011;2304;47.606;12.186;2023-05-23T17:41:27;16.83;;;10.90;;
4583;SDS011;2304;47.606;12.186;2023-05-23T17:46:29;13.10;;;10.57;;
4583;SDS011;2304;47.606;12.186;2023-05-23T17:51:31;17.63;;;11.07;;
4583;SDS011;2304;47.606;12.186;2023-05-23T17:56:34;13.27;;;10.30;;
4583;SDS011;2304;47.606;12.186;2023-05-23T18:01:36;13.80;;;10.43;;
4583;SDS011;2304;47.606;12.186;2023-05-23T18:06:38;12.70;;;10.13;;
4583;SDS011;2304;47.606;12.186;2023-05-23T18:11:41;15.73;;;10.70;;
4583;SDS011;2304;47.606;12.186;2023-05-23T18:16:43;15.60;;;11.57;;
4583;SDS011;2304;47.606;12.186;2023-05-23T18:21:45;15.23;;;11.30;;
4583;SDS011;2304;47.606;12.186;2023-05-23T18:26:48;25.60;;;16.27;;
4583;SDS011;2304;47.606;12.186;2023-05-23T18:31:50;20.50;;;13.40;;
4583;SDS011;2304;47.606;12.186;2023-05-23T18:36:52;20.47;;;14.43;;
4583;SDS011;2304;47.606;12.186;2023-05-23T18:41:55;27.67;;;19.43;;
4583;SDS011;2304;47.606;12.186;2023-05-23T18:46:57;19.07;;;14.43;;
4583;SDS011;2304;47.606;12.186;2023-05-23T18:51:59;20.17;;;14.97;;
4583;SDS011;2304;47.606;12.186;2023-05-23T18:57:02;20.03;;;15.00;;
4583;SDS011;2304;47.606;12.186;2023-05-23T19:02:04;20.13;;;15.47;;
4583;SDS011;2304;47.606;12.186;2023-05-23T19:07:07;20.00;;;14.00;;
4583;SDS011;2304;47.606;12.186;2023-05-23T19:12:10;23.70;;;15.67;;
4583;SDS011;2304;47.606;12.186;2023-05-23T19:17:11;21.97;;;16.67;;
4583;SDS011;2304;47.606;12.186;2023-05-23T19:22:13;22.50;;;17.20;;
4583;SDS011;2304;47.606;12.186;2023-05-23T19:27:17;21.97;;;16.83;;
4583;SDS011;2304;47.606;12.186;2023-05-23T19:32:19;23.17;;;17.50;;
4583;SDS011;2304;47.606;12.186;2023-05-23T19:37:21;23.30;;;16.57;;
4583;SDS011;2304;47.606;12.186;2023-05-23T19:42:24;27.70;;;17.53;;
4583;SDS011;2304;47.606;12.186;2023-05-23T19:47:26;25.57;;;18.13;;
4583;SDS011;2304;47.606;12.186;2023-05-23T19:52:28;25.80;;;17.90;;
4583;SDS011;2304;47.606;12.186;2023-05-23T19:57:31;22.53;;;17.63;;
4583;SDS011;2304;47.606;12.186;2023-05-23T20:02:33;26.30;;;18.27;;
4583;SDS011;2304;47.606;12.186;2023-05-23T20:07:35;26.43;;;18.60;;
4583;SDS011;2304;47.606;12.186;2023-05-23T20:12:39;27.40;;;17.80;;
4583;SDS011;2304;47.606;12.186;2023-05-23T20:17:41;24.37;;;17.70;;
4583;SDS011;2304;47.606;12.186;2023-05-23T20:22:43;23.63;;;17.40;;
4583;SDS011;2304;47.606;12.186;2023-05-23T20:27:46;26.37;;;17.17;;
4583;SDS011;2304;47.606;12.186;2023-05-23T20:32:48;22.07;;;16.37;;
4583;SDS011;2304;47.606;12.186;2023-05-23T20:37:52;21.17;;;16.50;;
4583;SDS011;2304;47.606;12.186;2023-05-23T20:42:55;20.10;;;15.47;;
4583;SDS011;2304;47.606;12.186;2023-05-23T20:48:03;24.33;;;15.17;;
4583;SDS011;2304;47.606;12.186;2023-05-23T20:53:05;25.60;;;16.10;;
4583;SDS011;2304;47.606;12.186;2023-05-23T20:58:08;20.40;;;14.87;;
4583;SDS011;2304;47.606;12.186;2023-05-23T21:03:10;23.23;;;14.73;;
4583;SDS011;2304;47.606;12.186;2023-05-23T21:08:12;23.63;;;15.60;;
4583;SDS011;2304;47.606;12.186;2023-05-23T21:13:15;21.37;;;14.80;;
4583;SDS011;2304;47.606;12.186;2023-05-23T21:18:17;19.40;;;14.23;;
4583;SDS011;2304;47.606;12.186;2023-05-23T21:23:19;23.03;;;14.67;;
4583;SDS011;2304;47.606;12.186;2023-05-23T21:28:22;21.30;;;14.87;;
4583;SDS011;2304;47.606;12.186;2023-05-23T21:33:24;18.37;;;14.13;;
4583;SDS011;2304;47.606;12.186;2023-05-23T21:38:26;23.57;;;15.93;;
4583;SDS011;2304;47.606;12.186;2023-05-23T21:43:29;20.30;;;15.17;;
4583;SDS011;2304;47.606;12.186;2023-05-23T21:48:31;23.27;;;16.10;;
4583;SDS011;2304;47.606;12.186;2023-05-23T21:53:33;24.07;;;17.97;;
4583;SDS011;2304;47.606;12.186;2023-05-23T21:58:36;24.97;;;17.80;;
4583;SDS011;2304;47.606;12.186;2023-05-23T22:03:38;17.83;;;14.30;;
4583;SDS011;2304;47.606;12.186;2023-05-23T22:08:40;17.10;;;13.43;;
4583;SDS011;2304;47.606;12.186;2023-05-23T22:13:46;20.20;;;15.23;;
4583;SDS011;2304;47.606;12.186;2023-05-23T22:18:47;21.83;;;15.17;;
4583;SDS011;2304;47.606;12.186;2023-05-23T22:23:49;27.30;;;14.20;;
4583;SDS011;2304;47.606;12.186;2023-05-23T22:28:53;25.13;;;13.93;;
4583;SDS011;2304;47.606;12.186;2023-05-23T22:33:55;17.87;;;13.23;;
4583;SDS011;2304;47.606;12.186;2023-05-23T22:38:57;15.93;;;11.87;;
4583;SDS011;2304;47.606;12.186;2023-05-23T22:44:02;18.37;;;13.27;;
4583;SDS011;2304;47.606;12.186;2023-05-23T22:49:04;20.73;;;14.83;;
4583;SDS011;2304;47.606;12.186;2023-05-23T22:54:06;19.47;;;14.33;;
4583;SDS011;2304;47.606;12.186;2023-05-23T22:59:09;14.80;;;10.13;;
4583;SDS011;2304;47.606;12.186;2023-05-23T23:04:10;14.70;;;11.70;;
4583;SDS011;2304;47.606;12.186;2023-05-23T23:09:12;18.47;;;12.90;;
4583;SDS011;2304;47.606;12.186;2023-05-23T23:14:15;13.83;;;11.80;;
4583;SDS011;2304;47.606;12.186;2023-05-23T23:19:17;17.70;;;12.20;;
4583;SDS011;2304;47.606;12.186;2023-05-23T23:24:19;18.90;;;12.40;;
4583;SDS011;2304;47.606;12.186;2023-05-23T23:29:22;17.03;;;10.97;;
4583;SDS011;2304;47.606;12.186;2023-05-23T23:34:24;13.73;;;11.13;;
4583;SDS011;2304;47.606;12.186;2023-05-23T23:39:26;18.93;;;10.40;;
4583;SDS011;2304;47.606;12.186;2023-05-23T23:44:29;12.87;;;9.20;;
4583;SDS011;2304;47.606;12.186;2023-05-23T23:49:31;11.23;;;8.50;;
4583;SDS011;2304;47.606;12.186;2023-05-23T23:54:33;9.73;;;7.60;;
4583;SDS011;2304;47.606;12.186;2023-05-23T23:59:36;11.10;;;7.50;;
